createdAt,value
2017-12-26T00:02:03.562Z,1.8
2017-12-26T00:07:03.151Z,1.8
2017-12-26T00:12:03.327Z,1.7
2017-12-26T00:17:03.476Z,1.7
2017-12-26T00:22:02.795Z,1.6
2017-12-26T00:27:03.399Z,1.6
2017-12-26T00:32:03.358Z,1.8
2017-12-26T00:37:03.608Z,1.7
2017-12-26T00:42:02.972Z,1.8
2017-12-26T00:47:03.672Z,1.8
2017-12-26T00:52:03.363Z,1.8
2017-12-26T00:57:03.376Z,1.9
2017-12-26T01:02:03.528Z,1.9
2017-12-26T01:07:03.296Z,1.9
2017-12-26T01:12:03.391Z,1.8
2017-12-26T01:17:03.559Z,1.9
2017-12-26T01:22:03.308Z,1.9
2017-12-26T01:27:03.404Z,1.9
2017-12-26T01:32:02.966Z,2.0
2017-12-26T01:37:03.643Z,2.0
2017-12-26T01:42:03.612Z,2.0
2017-12-26T01:47:03.654Z,2.0
2017-12-26T01:52:02.820Z,2.0
2017-12-26T01:57:02.867Z,2.1
2017-12-26T02:02:03.015Z,2.1
2017-12-26T02:07:03.287Z,2.1
2017-12-26T02:12:03.485Z,2.0
2017-12-26T02:17:03.599Z,2.2
2017-12-26T02:22:03.382Z,2.2
2017-12-26T02:27:03.193Z,2.3
2017-12-26T02:32:03.136Z,2.3
2017-12-26T02:37:03.029Z,2.3
2017-12-26T02:42:02.799Z,2.3
2017-12-26T02:47:02.808Z,2.4
2017-12-26T02:52:02.856Z,2.4
2017-12-26T02:57:03.167Z,2.3
2017-12-26T03:02:02.989Z,2.4
2017-12-26T03:07:03.147Z,2.4
2017-12-26T03:12:03.106Z,2.4
2017-12-26T03:17:03.315Z,2.5
2017-12-26T03:22:03.085Z,2.5
2017-12-26T03:27:03.030Z,2.6
2017-12-26T03:32:02.868Z,2.6
2017-12-26T03:37:03.562Z,2.6
2017-12-26T03:42:03.602Z,2.7
2017-12-26T03:47:02.715Z,2.8
2017-12-26T03:52:03.058Z,2.9
2017-12-26T03:57:03.165Z,2.8
2017-12-26T04:02:03.386Z,2.9
2017-12-26T04:07:03.358Z,2.8
2017-12-26T04:12:02.782Z,2.8
2017-12-26T04:17:03.155Z,2.9
2017-12-26T04:22:03.233Z,3.0
2017-12-26T04:27:03.353Z,3.1
2017-12-26T04:32:03.388Z,3.3
2017-12-26T04:37:03.552Z,3.4
2017-12-26T04:42:03.531Z,3.4
2017-12-26T04:47:02.763Z,3.5
2017-12-26T04:52:03.082Z,3.5
2017-12-26T04:57:03.017Z,3.4
2017-12-26T05:02:03.506Z,3.5
2017-12-26T05:07:02.773Z,3.4
2017-12-26T05:12:03.382Z,3.4
2017-12-26T05:17:03.477Z,3.3
2017-12-26T05:22:02.751Z,3.3
2017-12-26T05:27:02.854Z,3.2
2017-12-26T05:32:02.993Z,3.2
2017-12-26T05:37:03.235Z,3.2
2017-12-26T05:42:03.149Z,3.3
2017-12-26T05:47:03.403Z,3.4
2017-12-26T05:52:03.329Z,3.3
2017-12-26T05:57:02.883Z,3.3
2017-12-26T06:02:03.170Z,3.3
2017-12-26T06:07:03.236Z,3.3
2017-12-26T06:12:02.920Z,3.2
2017-12-26T06:17:03.534Z,3.2
2017-12-26T06:22:03.311Z,3.3
2017-12-26T06:27:03.599Z,3.3
2017-12-26T06:32:07.332Z,3.3
2017-12-26T06:37:02.989Z,3.3
2017-12-26T06:42:03.614Z,3.3
2017-12-26T06:47:13.566Z,3.3
2017-12-26T06:52:03.198Z,3.3
2017-12-26T06:57:03.558Z,3.2
2017-12-26T07:02:14.874Z,3.3
2017-12-26T07:07:03.096Z,3.3
2017-12-26T07:12:03.415Z,3.4
2017-12-26T07:17:14.369Z,3.4
2017-12-26T07:22:03.429Z,3.4
2017-12-26T07:27:03.124Z,3.5
2017-12-26T07:32:06.556Z,3.5
2017-12-26T07:37:03.073Z,3.6
2017-12-26T07:42:03.427Z,3.6
2017-12-26T07:47:16.649Z,3.6
2017-12-26T07:52:02.979Z,3.6
2017-12-26T07:57:02.843Z,3.7
2017-12-26T08:02:13.559Z,3.7
2017-12-26T08:07:02.872Z,4.3
2017-12-26T08:12:02.815Z,4.2
2017-12-26T08:17:14.157Z,4.8
2017-12-26T08:22:03.594Z,4.7
2017-12-26T08:27:03.635Z,5.3
2017-12-26T08:32:13.182Z,5.2
2017-12-26T08:37:02.840Z,5.8
2017-12-26T08:42:02.844Z,6.0
2017-12-26T08:47:14.224Z,6.1
2017-12-26T08:52:03.303Z,6.2
2017-12-26T08:57:02.810Z,6.4
2017-12-26T09:02:13.083Z,6.8
2017-12-26T09:07:02.999Z,6.8
2017-12-26T09:12:03.629Z,6.8
2017-12-26T09:17:14.047Z,7.1
2017-12-26T09:22:02.824Z,7.5
2017-12-26T09:27:03.250Z,7.8
2017-12-26T09:32:10.032Z,8.3
2017-12-26T09:37:03.081Z,8.3
2017-12-26T09:42:03.040Z,8.9
2017-12-26T09:47:07.320Z,9.5
2017-12-26T09:52:02.780Z,10.4
2017-12-26T09:57:06.310Z,10.3
2017-12-26T10:02:13.054Z,11.1
2017-12-26T10:07:03.608Z,11.3
2017-12-26T10:12:02.881Z,11.6
2017-12-26T10:17:12.519Z,11.6
2017-12-26T10:22:03.043Z,11.9
2017-12-26T10:27:03.047Z,11.8
2017-12-26T10:32:13.369Z,11.8
2017-12-26T10:37:02.687Z,12.0
2017-12-26T10:42:03.060Z,12.2
2017-12-26T10:47:13.709Z,12.2
2017-12-26T10:52:03.418Z,12.3
2017-12-26T10:57:02.706Z,12.3
2017-12-26T11:02:12.622Z,12.5
2017-12-26T11:07:02.859Z,12.5
2017-12-26T11:12:03.019Z,12.4
2017-12-26T11:17:13.474Z,12.3
2017-12-26T11:22:02.982Z,11.8
2017-12-26T11:27:02.974Z,11.3
2017-12-26T11:32:13.253Z,10.6
2017-12-26T11:37:02.804Z,10.3
2017-12-26T11:42:02.762Z,10.1
2017-12-26T11:47:13.951Z,9.9
2017-12-26T11:52:03.162Z,9.9
2017-12-26T11:57:02.943Z,9.8
2017-12-26T12:02:13.031Z,9.6
2017-12-26T12:07:02.860Z,9.5
2017-12-26T12:12:03.530Z,9.3
2017-12-26T12:17:13.665Z,9.3
2017-12-26T12:22:03.101Z,9.2
2017-12-26T12:27:02.951Z,9.1
2017-12-26T12:32:22.833Z,9.0
2017-12-26T12:37:02.848Z,8.9
2017-12-26T12:42:02.911Z,9.0
2017-12-26T12:47:13.263Z,9.6
2017-12-26T12:52:02.758Z,9.6
2017-12-26T12:57:02.727Z,9.9
2017-12-26T13:02:17.997Z,9.5
2017-12-26T13:07:03.535Z,9.5
2017-12-26T13:12:03.545Z,9.3
2017-12-26T13:17:13.574Z,9.3
2017-12-26T13:22:03.402Z,9.4
2017-12-26T13:27:03.720Z,9.4
2017-12-26T13:32:17.141Z,9.9
2017-12-26T13:37:03.455Z,11.0
2017-12-26T13:42:03.191Z,10.5
2017-12-26T13:47:13.358Z,10.1
2017-12-26T13:52:03.071Z,10.1
2017-12-26T13:57:02.864Z,9.7
2017-12-26T14:02:12.118Z,10.0
2017-12-26T14:07:02.885Z,9.8
2017-12-26T14:12:02.924Z,9.4
2017-12-26T14:17:13.204Z,9.1
2017-12-26T14:22:03.218Z,9.1
2017-12-26T14:27:02.979Z,9.0
2017-12-26T14:32:18.615Z,8.9
2017-12-26T14:37:03.518Z,8.8
2017-12-26T14:42:03.574Z,8.9
2017-12-26T14:47:13.879Z,8.9
2017-12-26T14:52:02.820Z,9.8
2017-12-26T14:57:03.436Z,10.1
2017-12-26T15:02:13.419Z,9.6
2017-12-26T15:07:03.031Z,8.7
2017-12-26T15:12:02.969Z,8.4
2017-12-26T15:17:12.770Z,8.3
2017-12-26T15:22:02.702Z,7.9
2017-12-26T15:27:02.820Z,7.9
2017-12-26T15:32:16.132Z,7.8
2017-12-26T15:37:03.668Z,7.6
2017-12-26T15:42:03.474Z,7.2
2017-12-26T15:47:17.636Z,7.2
2017-12-26T15:52:03.574Z,7.0
2017-12-26T15:57:02.749Z,6.9
2017-12-26T16:02:14.116Z,6.6
2017-12-26T16:07:03.530Z,6.6
2017-12-26T16:12:03.290Z,6.5
2017-12-26T16:17:11.973Z,6.4
2017-12-26T16:22:03.220Z,6.4
2017-12-26T16:27:02.885Z,6.3
2017-12-26T16:32:03.083Z,6.1
2017-12-26T16:37:03.213Z,6.1
2017-12-26T16:42:03.151Z,6.0
2017-12-26T16:47:02.834Z,6.0
2017-12-26T16:52:02.880Z,5.9
2017-12-26T16:57:03.027Z,5.9
2017-12-26T17:02:03.227Z,5.9
2017-12-26T17:07:03.306Z,5.8
2017-12-26T17:12:03.648Z,5.8
2017-12-26T17:17:03.696Z,5.7
2017-12-26T17:22:02.922Z,5.6
2017-12-26T17:27:03.111Z,5.6
2017-12-26T17:32:03.263Z,5.5
2017-12-26T17:37:03.424Z,5.4
2017-12-26T17:42:03.470Z,5.4
2017-12-26T17:47:02.868Z,5.4
2017-12-26T17:52:02.996Z,5.4
2017-12-26T17:57:03.306Z,5.3
2017-12-26T18:02:03.839Z,5.3
2017-12-26T18:07:03.095Z,5.4
2017-12-26T18:12:03.346Z,5.3
2017-12-26T18:17:03.700Z,5.3
2017-12-26T18:22:03.340Z,5.1
2017-12-26T18:27:03.412Z,5.0
2017-12-26T18:32:03.325Z,5.0
2017-12-26T18:37:03.742Z,5.0
2017-12-26T18:42:03.561Z,4.7
2017-12-26T18:47:02.941Z,4.7
2017-12-26T18:52:03.096Z,4.6
2017-12-26T18:57:03.289Z,4.6
2017-12-26T19:02:03.662Z,4.5
2017-12-26T19:07:02.949Z,4.3
2017-12-26T19:12:03.351Z,4.3
2017-12-26T19:17:08.961Z,4.2
2017-12-26T19:22:03.075Z,4.0
2017-12-26T19:27:03.228Z,3.9
2017-12-26T19:32:05.860Z,3.9
2017-12-26T19:37:03.098Z,3.9
2017-12-26T19:42:03.338Z,3.9
2017-12-26T19:47:03.799Z,3.9
2017-12-26T19:52:02.785Z,3.9
2017-12-26T19:57:02.968Z,3.8
2017-12-26T20:02:03.060Z,3.7
2017-12-26T20:07:03.216Z,3.7
2017-12-26T20:12:03.562Z,3.6
2017-12-26T20:17:03.739Z,3.5
2017-12-26T20:22:03.005Z,3.4
2017-12-26T20:27:03.197Z,3.4
2017-12-26T20:32:03.362Z,3.4
2017-12-26T20:37:03.470Z,3.3
2017-12-26T20:42:03.554Z,3.3
2017-12-26T20:47:02.916Z,3.6
2017-12-26T20:52:03.178Z,3.5
2017-12-26T20:57:03.159Z,3.6
2017-12-26T21:02:03.411Z,3.7
2017-12-26T21:07:03.684Z,3.5
2017-12-26T21:12:02.928Z,3.5
2017-12-26T21:17:03.163Z,3.4
2017-12-26T21:22:03.327Z,3.6
2017-12-26T21:27:03.398Z,3.6
2017-12-26T21:32:03.070Z,3.6
2017-12-26T21:37:03.173Z,3.6
2017-12-26T21:42:03.337Z,3.5
2017-12-26T21:47:03.982Z,3.4
2017-12-26T21:52:02.670Z,3.1
2017-12-26T21:57:02.845Z,3.0
2017-12-26T22:02:03.993Z,3.1
2017-12-26T22:07:03.326Z,3.1
2017-12-26T22:12:02.772Z,3.1
2017-12-26T22:17:03.281Z,3.2
2017-12-26T22:22:03.271Z,3.1
2017-12-26T22:27:03.359Z,3.3
2017-12-26T22:32:03.372Z,3.5
2017-12-26T22:37:03.488Z,3.4
2017-12-26T22:42:03.621Z,3.5
2017-12-26T22:47:03.381Z,3.6
2017-12-26T22:52:02.839Z,3.7
2017-12-26T22:57:03.061Z,3.6
2017-12-26T23:02:03.318Z,3.8
2017-12-26T23:07:03.631Z,3.8
2017-12-26T23:12:03.751Z,3.8
2017-12-26T23:22:04.126Z,3.8
2017-12-26T23:27:03.682Z,3.8
2017-12-26T23:32:03.474Z,3.9
2017-12-26T23:37:02.854Z,3.8
2017-12-26T23:42:03.110Z,3.8
2017-12-26T23:47:03.995Z,3.7
2017-12-26T23:52:03.135Z,3.7
2017-12-26T23:57:03.122Z,3.8
